sensor_id;sensor_type;location;lat;lon;timestamp;pressure;altitude;pressure_sealevel;temperature;humidity
56514;BME280;62152;52.078;8.414;2022-08-11T00:00:58;100962.59;;;23.09;51.05
56514;BME280;62152;52.078;8.414;2022-08-11T00:02:51;100957.06;;;23.09;50.86
56514;BME280;62152;52.078;8.414;2022-08-11T00:04:39;100959.81;;;23.09;51.00
56514;BME280;62152;52.078;8.414;2022-08-11T00:06:27;100950.34;;;23.10;50.88
56514;BME280;62152;52.078;8.414;2022-08-11T00:08:21;100950.34;;;23.10;51.05
56514;BME280;62152;52.078;8.414;2022-08-11T00:10:10;100945.97;;;23.09;51.03
56514;BME280;62152;52.078;8.414;2022-08-11T00:11:59;100950.72;;;23.09;50.93
56514;BME280;62152;52.078;8.414;2022-08-11T00:13:48;100945.19;;;23.09;50.75
56514;BME280;62152;52.078;8.414;2022-08-11T00:15:42;100945.19;;;23.09;51.07
56514;BME280;62152;52.078;8.414;2022-08-11T00:17:31;100945.19;;;23.09;51.04
56514;BME280;62152;52.078;8.414;2022-08-11T00:19:21;100952.69;;;23.08;50.83
56514;BME280;62152;52.078;8.414;2022-08-11T00:21:11;100950.72;;;23.09;50.87
56514;BME280;62152;52.078;8.414;2022-08-11T00:23:01;100950.72;;;23.09;51.09
56514;BME280;62152;52.078;8.414;2022-08-11T00:24:52;100949.94;;;23.08;51.04
56514;BME280;62152;52.078;8.414;2022-08-11T00:26:38;100944.41;;;23.08;50.88
56514;BME280;62152;52.078;8.414;2022-08-11T00:28:25;100949.94;;;23.08;50.79
56514;BME280;62152;52.078;8.414;2022-08-11T00:30:13;100943.59;;;23.08;51.02
56514;BME280;62152;52.078;8.414;2022-08-11T00:32:05;100945.19;;;23.09;50.90
56514;BME280;62152;52.078;8.414;2022-08-11T00:34:00;100942.81;;;23.07;51.06
56514;BME280;62152;52.078;8.414;2022-08-11T00:35:48;100945.59;;;23.07;50.87
56514;BME280;62152;52.078;8.414;2022-08-11T00:37:37;100945.59;;;23.07;50.96
56514;BME280;62152;52.078;8.414;2022-08-11T00:39:31;100953.88;;;23.07;51.12
56514;BME280;62152;52.078;8.414;2022-08-11T00:41:31;100955.84;;;23.07;50.97
56514;BME280;62152;52.078;8.414;2022-08-11T00:43:40;100942.81;;;23.07;51.00
56514;BME280;62152;52.078;8.414;2022-08-11T00:45:41;100952.28;;;23.06;50.99
56514;BME280;62152;52.078;8.414;2022-08-11T00:47:47;100944.00;;;23.06;50.83
56514;BME280;62152;52.078;8.414;2022-08-11T00:50:00;100952.28;;;23.06;50.92
56514;BME280;62152;52.078;8.414;2022-08-11T00:52:07;100946.75;;;23.06;50.93
56514;BME280;62152;52.078;8.414;2022-08-11T00:54:14;100957.81;;;23.06;50.98
56514;BME280;62152;52.078;8.414;2022-08-11T00:59:31;100952.28;;;23.06;51.07
56514;BME280;62152;52.078;8.414;2022-08-11T01:01:54;100952.66;;;23.05;51.06
56514;BME280;62152;52.078;8.414;2022-08-11T01:04:15;100954.25;;;23.06;51.05
56514;BME280;62152;52.078;8.414;2022-08-11T01:06:29;100955.41;;;23.05;51.06
56514;BME280;62152;52.078;8.414;2022-08-11T01:20:06;100960.16;;;23.04;51.00
56514;BME280;62152;52.078;8.414;2022-08-11T01:22:36;100952.25;;;23.03;50.85
56514;BME280;62152;52.078;8.414;2022-08-11T01:25:27;100957.78;;;23.03;50.86
56514;BME280;62152;52.078;8.414;2022-08-11T01:34:14;100959.75;;;23.02;51.00
56514;BME280;62152;52.078;8.414;2022-08-11T01:39:38;100951.44;;;23.02;51.10
56514;BME280;62152;52.078;8.414;2022-08-11T01:42:24;100957.00;;;23.02;51.10
56514;BME280;62152;52.078;8.414;2022-08-11T01:45:15;100950.66;;;23.02;51.21
56514;BME280;62152;52.078;8.414;2022-08-11T01:47:25;100957.00;;;23.02;50.94
56514;BME280;62152;52.078;8.414;2022-08-11T01:49:35;100955.41;;;23.01;50.84
56514;BME280;62152;52.078;8.414;2022-08-11T01:51:45;100953.44;;;23.02;50.86
56514;BME280;62152;52.078;8.414;2022-08-11T01:53:54;100959.34;;;23.00;51.00
56514;BME280;62152;52.078;8.414;2022-08-11T01:55:58;100958.97;;;23.02;51.14
56514;BME280;62152;52.078;8.414;2022-08-11T01:58:04;100958.16;;;23.01;51.11
56514;BME280;62152;52.078;8.414;2022-08-11T02:00:08;100958.97;;;23.02;50.85
56514;BME280;62152;52.078;8.414;2022-08-11T02:04:39;100959.34;;;23.00;51.07
56514;BME280;62152;52.078;8.414;2022-08-11T02:06:44;100959.34;;;23.00;50.92
56514;BME280;62152;52.078;8.414;2022-08-11T02:08:46;100962.91;;;23.01;50.75
56514;BME280;62152;52.078;8.414;2022-08-11T02:10:46;100964.88;;;23.00;51.01
56514;BME280;62152;52.078;8.414;2022-08-11T02:12:56;100962.13;;;23.00;50.96
56514;BME280;62152;52.078;8.414;2022-08-11T02:15:02;100961.31;;;23.00;50.95
56514;BME280;62152;52.078;8.414;2022-08-11T02:17:11;100956.94;;;22.99;51.08
56514;BME280;62152;52.078;8.414;2022-08-11T02:19:10;100961.31;;;23.00;51.10
56514;BME280;62152;52.078;8.414;2022-08-11T02:21:27;100954.19;;;22.99;51.08
56514;BME280;62152;52.078;8.414;2022-08-11T02:23:40;100958.56;;;23.00;51.08
56514;BME280;62152;52.078;8.414;2022-08-11T02:25:45;100956.16;;;22.98;50.95
56514;BME280;62152;52.078;8.414;2022-08-11T02:27:43;100956.94;;;22.99;51.27
56514;BME280;62152;52.078;8.414;2022-08-11T02:29:41;100957.75;;;22.99;51.14
56514;BME280;62152;52.078;8.414;2022-08-11T02:31:41;100954.19;;;22.99;51.33
56514;BME280;62152;52.078;8.414;2022-08-11T02:33:53;100961.69;;;22.98;51.09
56514;BME280;62152;52.078;8.414;2022-08-11T02:35:56;100950.63;;;22.98;51.12
56514;BME280;62152;52.078;8.414;2022-08-11T02:37:58;100960.53;;;22.99;50.95
56514;BME280;62152;52.078;8.414;2022-08-11T02:40:08;100953.38;;;22.98;51.22
56514;BME280;62152;52.078;8.414;2022-08-11T02:42:19;100951.78;;;22.97;51.30
56514;BME280;62152;52.078;8.414;2022-08-11T02:44:20;100951.78;;;22.97;51.43
56514;BME280;62152;52.078;8.414;2022-08-11T02:46:20;100954.56;;;22.97;51.21
56514;BME280;62152;52.078;8.414;2022-08-11T02:48:26;100953.78;;;22.97;51.00
56514;BME280;62152;52.078;8.414;2022-08-11T02:50:34;100950.63;;;22.98;51.23
56514;BME280;62152;52.078;8.414;2022-08-11T02:52:39;100951.78;;;22.97;51.03
56514;BME280;62152;52.078;8.414;2022-08-11T02:54:40;100953.78;;;22.97;51.32
56514;BME280;62152;52.078;8.414;2022-08-11T02:56:41;100962.88;;;22.97;51.16
56514;BME280;62152;52.078;8.414;2022-08-11T02:58:44;100965.63;;;22.97;50.99
56514;BME280;62152;52.078;8.414;2022-08-11T03:00:56;100956.53;;;22.97;51.17
56514;BME280;62152;52.078;8.414;2022-08-11T03:03:14;100965.63;;;22.97;51.43
56514;BME280;62152;52.078;8.414;2022-08-11T03:05:14;100958.50;;;22.96;51.21
56514;BME280;62152;52.078;8.414;2022-08-11T03:07:18;100955.75;;;22.96;51.28
56514;BME280;62152;52.078;8.414;2022-08-11T03:09:16;100949.41;;;22.96;51.25
56514;BME280;62152;52.078;8.414;2022-08-11T03:11:13;100958.50;;;22.96;50.98
56514;BME280;62152;52.078;8.414;2022-08-11T03:13:24;100957.72;;;22.96;51.07
56514;BME280;62152;52.078;8.414;2022-08-11T03:18:03;100959.69;;;22.95;51.26
56514;BME280;62152;52.078;8.414;2022-08-11T03:20:30;100963.25;;;22.96;50.96
56514;BME280;62152;52.078;8.414;2022-08-11T03:22:29;100966.81;;;22.96;51.16
56514;BME280;62152;52.078;8.414;2022-08-11T03:24:28;100966.00;;;22.96;50.95
56514;BME280;62152;52.078;8.414;2022-08-11T03:26:27;100966.81;;;22.96;51.39
56514;BME280;62152;52.078;8.414;2022-08-11T03:28:27;100961.66;;;22.95;51.21
56514;BME280;62152;52.078;8.414;2022-08-11T03:30:24;100960.88;;;22.94;50.96
56514;BME280;62152;52.078;8.414;2022-08-11T03:32:24;100954.91;;;22.92;50.95
56514;BME280;62152;52.078;8.414;2022-08-11T03:34:17;100953.69;;;22.89;50.49
56514;BME280;62152;52.078;8.414;2022-08-11T03:36:12;100957.94;;;22.80;49.35
56514;BME280;62152;52.078;8.414;2022-08-11T03:38:12;100967.69;;;22.66;48.88
56514;BME280;62152;52.078;8.414;2022-08-11T03:40:12;100964.44;;;22.61;48.42
56514;BME280;62152;52.078;8.414;2022-08-11T03:42:28;100957.25;;;22.53;48.14
56514;BME280;62152;52.078;8.414;2022-08-11T03:44:40;100955.22;;;22.50;47.61
56514;BME280;62152;52.078;8.414;2022-08-11T03:46:44;100953.25;;;22.47;47.21
56514;BME280;62152;52.078;8.414;2022-08-11T03:48:58;100951.59;;;22.42;46.48
56514;BME280;62152;52.078;8.414;2022-08-11T03:51:05;100953.94;;;22.40;46.43
56514;BME280;62152;52.078;8.414;2022-08-11T03:53:10;100952.38;;;22.39;46.59
56514;BME280;62152;52.078;8.414;2022-08-11T03:55:09;100952.28;;;22.32;45.96
56514;BME280;62152;52.078;8.414;2022-08-11T03:57:55;100958.91;;;22.24;45.66
56514;BME280;62152;52.078;8.414;2022-08-11T04:08:34;100954.56;;;21.96;45.90
56514;BME280;62152;52.078;8.414;2022-08-11T04:11:08;100956.09;;;21.94;45.91
56514;BME280;62152;52.078;8.414;2022-08-11T04:13:33;100961.09;;;22.11;46.26
56514;BME280;62152;52.078;8.414;2022-08-11T04:16:15;100963.25;;;22.25;46.07
56514;BME280;62152;52.078;8.414;2022-08-11T04:21:09;100958.69;;;22.39;46.25
56514;BME280;62152;52.078;8.414;2022-08-11T04:23:24;100961.13;;;22.45;46.13
56514;BME280;62152;52.078;8.414;2022-08-11T04:25:50;100956.41;;;22.49;46.18
56514;BME280;62152;52.078;8.414;2022-08-11T04:28:33;100944.97;;;22.50;46.06
56514;BME280;62152;52.078;8.414;2022-08-11T04:30:52;100955.66;;;22.52;46.67
56514;BME280;62152;52.078;8.414;2022-08-11T04:33:08;100942.63;;;22.52;46.57
56514;BME280;62152;52.078;8.414;2022-08-11T04:35:41;100940.66;;;22.53;46.90
56514;BME280;62152;52.078;8.414;2022-08-11T04:38:13;100947.41;;;22.55;46.69
56514;BME280;62152;52.078;8.414;2022-08-11T04:40:54;100944.63;;;22.55;46.93
56514;BME280;62152;52.078;8.414;2022-08-11T04:43:22;100947.41;;;22.55;47.08
56514;BME280;62152;52.078;8.414;2022-08-11T04:45:43;100942.28;;;22.57;46.90
56514;BME280;62152;52.078;8.414;2022-08-11T04:48:07;100943.47;;;22.56;47.25
56514;BME280;62152;52.078;8.414;2022-08-11T04:50:24;100941.47;;;22.57;47.26
56514;BME280;62152;52.078;8.414;2022-08-11T04:53:04;100945.03;;;22.57;47.39
56514;BME280;62152;52.078;8.414;2022-08-11T04:55:38;100950.22;;;22.59;47.16
56514;BME280;62152;52.078;8.414;2022-08-11T04:58:03;100948.25;;;22.59;47.22
56514;BME280;62152;52.078;8.414;2022-08-11T05:00:17;100945.88;;;22.58;47.26
56514;BME280;62152;52.078;8.414;2022-08-11T05:05:19;100947.47;;;22.59;47.33
56514;BME280;62152;52.078;8.414;2022-08-11T05:10:17;100951.41;;;22.61;47.40
56514;BME280;62152;52.078;8.414;2022-08-11T05:12:31;100960.50;;;22.62;47.47
56514;BME280;62152;52.078;8.414;2022-08-11T05:14:32;100945.88;;;22.61;47.42
56514;BME280;62152;52.078;8.414;2022-08-11T05:16:41;100947.06;;;22.60;47.47
56514;BME280;62152;52.078;8.414;2022-08-11T05:18:47;100954.97;;;22.62;47.68
56514;BME280;62152;52.078;8.414;2022-08-11T05:20:51;100955.78;;;22.62;47.51
56514;BME280;62152;52.078;8.414;2022-08-11T05:22:52;100953.00;;;22.62;47.51
56514;BME280;62152;52.078;8.414;2022-08-11T05:24:59;100950.25;;;22.62;47.47
56514;BME280;62152;52.078;8.414;2022-08-11T05:27:06;100956.56;;;22.63;47.61
56514;BME280;62152;52.078;8.414;2022-08-11T05:29:36;100953.78;;;22.63;47.80
56514;BME280;62152;52.078;8.414;2022-08-11T05:31:42;100958.94;;;22.64;47.78
56514;BME280;62152;52.078;8.414;2022-08-11T05:33:48;100961.72;;;22.64;47.65
56514;BME280;62152;52.078;8.414;2022-08-11T05:35:56;100958.94;;;22.64;47.81
56514;BME280;62152;52.078;8.414;2022-08-11T05:37:50;100959.75;;;22.65;47.65
56514;BME280;62152;52.078;8.414;2022-08-11T05:39:56;100957.78;;;22.65;47.71
56514;BME280;62152;52.078;8.414;2022-08-11T05:42:04;100956.19;;;22.64;47.80
56514;BME280;62152;52.078;8.414;2022-08-11T05:44:04;100955.03;;;22.65;47.71
56514;BME280;62152;52.078;8.414;2022-08-11T05:46:06;100947.53;;;22.66;47.71
56514;BME280;62152;52.078;8.414;2022-08-11T05:48:05;100952.66;;;22.67;47.68
56514;BME280;62152;52.078;8.414;2022-08-11T05:50:08;100958.19;;;22.67;47.87
56514;BME280;62152;52.078;8.414;2022-08-11T05:52:14;100957.41;;;22.67;47.72
56514;BME280;62152;52.078;8.414;2022-08-11T05:54:16;100953.84;;;22.66;47.94
56514;BME280;62152;52.078;8.414;2022-08-11T05:56:14;100952.66;;;22.67;47.79
56514;BME280;62152;52.078;8.414;2022-08-11T05:58:06;100951.88;;;22.67;47.70
56514;BME280;62152;52.078;8.414;2022-08-11T05:59:59;100951.50;;;22.69;47.82
56514;BME280;62152;52.078;8.414;2022-08-11T06:01:59;100954.25;;;22.69;47.77
56514;BME280;62152;52.078;8.414;2022-08-11T06:03:49;100945.16;;;22.68;47.74
56514;BME280;62152;52.078;8.414;2022-08-11T06:05:56;100954.25;;;22.69;47.82
56514;BME280;62152;52.078;8.414;2022-08-11T06:07:43;100960.59;;;22.69;47.78
56514;BME280;62152;52.078;8.414;2022-08-11T06:09:34;100949.53;;;22.69;47.86
56514;BME280;62152;52.078;8.414;2022-08-11T06:11:22;100957.44;;;22.71;47.77
56514;BME280;62152;52.078;8.414;2022-08-11T06:13:15;100958.22;;;22.71;47.95
56514;BME280;62152;52.078;8.414;2022-08-11T06:15:07;100959.41;;;22.70;47.83
56514;BME280;62152;52.078;8.414;2022-08-11T06:17:00;100959.03;;;22.72;47.96
56514;BME280;62152;52.078;8.414;2022-08-11T06:18:49;100958.22;;;22.71;47.82
56514;BME280;62152;52.078;8.414;2022-08-11T06:20:45;100951.91;;;22.71;48.02
56514;BME280;62152;52.078;8.414;2022-08-11T06:22:32;100957.06;;;22.72;47.98
56514;BME280;62152;52.078;8.414;2022-08-11T06:24:18;100959.84;;;22.72;47.80
56514;BME280;62152;52.078;8.414;2022-08-11T06:26:08;100959.84;;;22.72;47.98
56514;BME280;62152;52.078;8.414;2022-08-11T06:27:55;100957.47;;;22.74;48.01
56514;BME280;62152;52.078;8.414;2022-08-11T06:29:48;100951.91;;;22.71;48.05
56514;BME280;62152;52.078;8.414;2022-08-11T06:31:35;100956.69;;;22.74;48.01
56514;BME280;62152;52.078;8.414;2022-08-11T06:33:30;100954.72;;;22.74;48.07
56514;BME280;62152;52.078;8.414;2022-08-11T06:35:24;100951.16;;;22.74;48.04
56514;BME280;62152;52.078;8.414;2022-08-11T06:37:24;100961.03;;;22.75;47.93
56514;BME280;62152;52.078;8.414;2022-08-11T06:39:23;100953.91;;;22.74;48.08
56514;BME280;62152;52.078;8.414;2022-08-11T06:41:21;100959.44;;;22.74;47.97
56514;BME280;62152;52.078;8.414;2022-08-11T06:43:19;100958.28;;;22.75;48.08
56514;BME280;62152;52.078;8.414;2022-08-11T06:45:20;100959.84;;;22.76;47.96
56514;BME280;62152;52.078;8.414;2022-08-11T06:47:13;100961.84;;;22.75;47.85
56514;BME280;62152;52.078;8.414;2022-08-11T06:49:05;100969.34;;;22.75;47.90
56514;BME280;62152;52.078;8.414;2022-08-11T06:51:12;100965.38;;;22.76;47.83
56514;BME280;62152;52.078;8.414;2022-08-11T06:52:57;100962.63;;;22.76;47.77
56514;BME280;62152;52.078;8.414;2022-08-11T06:54:50;100964.59;;;22.75;47.71
56514;BME280;62152;52.078;8.414;2022-08-11T06:56:47;100954.31;;;22.76;47.86
56514;BME280;62152;52.078;8.414;2022-08-11T06:58:48;100961.44;;;22.77;48.01
56514;BME280;62152;52.078;8.414;2022-08-11T07:00:48;100967.41;;;22.79;47.84
56514;BME280;62152;52.078;8.414;2022-08-11T07:02:46;100964.66;;;22.79;47.82
56514;BME280;62152;52.078;8.414;2022-08-11T07:04:46;100955.53;;;22.78;47.72
56514;BME280;62152;52.078;8.414;2022-08-11T07:06:49;100959.13;;;22.79;47.96
56514;BME280;62152;52.078;8.414;2022-08-11T07:09:24;100956.34;;;22.79;48.00
56514;BME280;62152;52.078;8.414;2022-08-11T07:11:58;100955.91;;;22.77;47.78
56514;BME280;62152;52.078;8.414;2022-08-11T07:14:06;100961.88;;;22.79;47.88
56514;BME280;62152;52.078;8.414;2022-08-11T07:16:07;100962.69;;;22.79;47.89
56514;BME280;62152;52.078;8.414;2022-08-11T07:18:00;100961.88;;;22.79;47.85
56514;BME280;62152;52.078;8.414;2022-08-11T07:20:09;100961.50;;;22.80;47.86
56514;BME280;62152;52.078;8.414;2022-08-11T07:22:11;100960.31;;;22.81;47.74
56514;BME280;62152;52.078;8.414;2022-08-11T07:24:15;100960.25;;;22.78;47.58
56514;BME280;62152;52.078;8.414;2022-08-11T07:26:18;100955.16;;;22.80;47.77
56514;BME280;62152;52.078;8.414;2022-08-11T07:28:24;100956.75;;;22.81;47.78
56514;BME280;62152;52.078;8.414;2022-08-11T07:30:25;100959.53;;;22.81;47.41
56514;BME280;62152;52.078;8.414;2022-08-11T07:32:21;100959.53;;;22.81;47.56
56514;BME280;62152;52.078;8.414;2022-08-11T07:34:19;100952.03;;;22.81;47.66
56514;BME280;62152;52.078;8.414;2022-08-11T07:36:13;100956.38;;;22.82;47.62
56514;BME280;62152;52.078;8.414;2022-08-11T07:38:05;100953.59;;;22.82;47.72
56514;BME280;62152;52.078;8.414;2022-08-11T07:39:53;100954.41;;;22.83;47.71
56514;BME280;62152;52.078;8.414;2022-08-11T07:41:42;100954.41;;;22.83;47.57
56514;BME280;62152;52.078;8.414;2022-08-11T07:43:29;100950.44;;;22.84;47.66
56514;BME280;62152;52.078;8.414;2022-08-11T07:45:14;100953.22;;;22.84;47.60
56514;BME280;62152;52.078;8.414;2022-08-11T07:47:13;100951.63;;;22.83;47.71
56514;BME280;62152;52.078;8.414;2022-08-11T07:49:12;100947.28;;;22.82;47.61
56514;BME280;62152;52.078;8.414;2022-08-11T07:51:13;100950.84;;;22.82;47.33
56514;BME280;62152;52.078;8.414;2022-08-11T07:53:17;100953.22;;;22.84;47.51
56514;BME280;62152;52.078;8.414;2022-08-11T07:55:05;100955.19;;;22.83;47.47
56514;BME280;62152;52.078;8.414;2022-08-11T07:56:57;100953.22;;;22.84;47.51
56514;BME280;62152;52.078;8.414;2022-08-11T07:58:42;100952.44;;;22.83;47.58
56514;BME280;62152;52.078;8.414;2022-08-11T08:00:44;100951.25;;;22.84;47.58
56514;BME280;62152;52.078;8.414;2022-08-11T08:02:45;100949.28;;;22.85;47.47
56514;BME280;62152;52.078;8.414;2022-08-11T08:04:45;100960.34;;;22.85;47.52
56514;BME280;62152;52.078;8.414;2022-08-11T08:06:47;100950.09;;;22.85;47.33
56514;BME280;62152;52.078;8.414;2022-08-11T08:08:46;100957.56;;;22.85;47.31
56514;BME280;62152;52.078;8.414;2022-08-11T08:10:44;100960.34;;;22.85;47.20
56514;BME280;62152;52.078;8.414;2022-08-11T08:12:42;100954.47;;;22.86;47.31
56514;BME280;62152;52.078;8.414;2022-08-11T08:14:41;100955.63;;;22.85;47.33
56514;BME280;62152;52.078;8.414;2022-08-11T08:16:40;100955.28;;;22.87;47.36
56514;BME280;62152;52.078;8.414;2022-08-11T08:18:40;100961.59;;;22.87;47.35
56514;BME280;62152;52.078;8.414;2022-08-11T08:20:29;100949.34;;;22.88;47.34
56514;BME280;62152;52.078;8.414;2022-08-11T08:22:22;100956.84;;;22.88;47.28
56514;BME280;62152;52.078;8.414;2022-08-11T08:24:09;100956.06;;;22.87;47.06
56514;BME280;62152;52.078;8.414;2022-08-11T08:25:55;100949.34;;;22.88;47.07
56514;BME280;62152;52.078;8.414;2022-08-11T08:27:42;100956.47;;;22.89;47.11
56514;BME280;62152;52.078;8.414;2022-08-11T08:29:30;100952.91;;;22.89;46.86
56514;BME280;62152;52.078;8.414;2022-08-11T08:31:29;100946.19;;;22.90;46.96
56514;BME280;62152;52.078;8.414;2022-08-11T08:33:18;100954.50;;;22.90;46.51
56514;BME280;62152;52.078;8.414;2022-08-11T08:35:07;100952.91;;;22.89;46.75
56514;BME280;62152;52.078;8.414;2022-08-11T08:36:54;100953.69;;;22.89;46.70
56514;BME280;62152;52.078;8.414;2022-08-11T08:38:48;100954.50;;;22.90;46.65
56514;BME280;62152;52.078;8.414;2022-08-11T08:40:37;100954.50;;;22.90;46.86
56514;BME280;62152;52.078;8.414;2022-08-11T08:42:27;100948.97;;;22.90;46.95
56514;BME280;62152;52.078;8.414;2022-08-11T08:44:18;100956.09;;;22.91;46.96
56514;BME280;62152;52.078;8.414;2022-08-11T08:46:08;100947.78;;;22.91;46.83
56514;BME280;62152;52.078;8.414;2022-08-11T08:47:59;100950.56;;;22.91;47.00
56514;BME280;62152;52.078;8.414;2022-08-11T08:49:50;100942.25;;;22.91;46.99
56514;BME280;62152;52.078;8.414;2022-08-11T08:51:50;100943.47;;;22.93;47.12
56514;BME280;62152;52.078;8.414;2022-08-11T08:53:49;100949.38;;;22.92;46.96
56514;BME280;62152;52.078;8.414;2022-08-11T08:55:39;100946.59;;;22.92;46.84
56514;BME280;62152;52.078;8.414;2022-08-11T08:57:27;100942.69;;;22.93;46.94
56514;BME280;62152;52.078;8.414;2022-08-11T08:59:21;100939.13;;;22.92;46.80
56514;BME280;62152;52.078;8.414;2022-08-11T09:01:12;100937.16;;;22.93;46.90
56514;BME280;62152;52.078;8.414;2022-08-11T09:03:01;100933.22;;;22.94;46.83
56514;BME280;62152;52.078;8.414;2022-08-11T09:04:47;100938.75;;;22.94;46.71
56514;BME280;62152;52.078;8.414;2022-08-11T09:06:34;100938.75;;;22.94;46.67
56514;BME280;62152;52.078;8.414;2022-08-11T09:08:24;100941.50;;;22.94;46.82
56514;BME280;62152;52.078;8.414;2022-08-11T09:10:14;100940.72;;;22.93;47.04
56514;BME280;62152;52.078;8.414;2022-08-11T09:12:04;100941.13;;;22.96;46.99
56514;BME280;62152;52.078;8.414;2022-08-11T09:13:48;100943.09;;;22.95;46.80
56514;BME280;62152;52.078;8.414;2022-08-11T09:15:35;100941.13;;;22.96;46.75
56514;BME280;62152;52.078;8.414;2022-08-11T09:17:22;100941.13;;;22.96;46.68
56514;BME280;62152;52.078;8.414;2022-08-11T09:19:09;100939.16;;;22.96;46.86
56514;BME280;62152;52.078;8.414;2022-08-11T09:21:01;100936.78;;;22.95;46.81
56514;BME280;62152;52.078;8.414;2022-08-11T09:22:50;100935.59;;;22.96;46.67
56514;BME280;62152;52.078;8.414;2022-08-11T09:24:54;100936.38;;;22.96;46.85
56514;BME280;62152;52.078;8.414;2022-08-11T09:26:55;100935.59;;;22.96;46.82
56514;BME280;62152;52.078;8.414;2022-08-11T09:28:47;100926.91;;;22.97;46.93
56514;BME280;62152;52.078;8.414;2022-08-11T09:30:33;100923.34;;;22.97;46.69
56514;BME280;62152;52.078;8.414;2022-08-11T09:32:20;100930.84;;;22.96;46.87
56514;BME280;62152;52.078;8.414;2022-08-11T09:34:09;100930.84;;;22.96;46.25
56514;BME280;62152;52.078;8.414;2022-08-11T09:35:56;100921.38;;;22.97;46.49
56514;BME280;62152;52.078;8.414;2022-08-11T09:38:04;100925.72;;;22.98;46.48
56514;BME280;62152;52.078;8.414;2022-08-11T09:40:06;100922.94;;;22.98;46.65
56514;BME280;62152;52.078;8.414;2022-08-11T09:42:10;100916.63;;;22.98;46.54
56514;BME280;62152;52.078;8.414;2022-08-11T09:43:59;100916.63;;;22.98;46.55
56514;BME280;62152;52.078;8.414;2022-08-11T09:45:59;100919.03;;;22.99;46.22
56514;BME280;62152;52.078;8.414;2022-08-11T09:47:47;100928.47;;;22.98;46.27
56514;BME280;62152;52.078;8.414;2022-08-11T09:49:32;100918.22;;;22.99;46.15
56514;BME280;62152;52.078;8.414;2022-08-11T09:51:22;100919.03;;;22.99;46.80
56514;BME280;62152;52.078;8.414;2022-08-11T09:53:09;100918.22;;;22.99;46.76
56514;BME280;62152;52.078;8.414;2022-08-11T09:54:55;100917.84;;;23.00;46.33
56514;BME280;62152;52.078;8.414;2022-08-11T09:56:42;100917.84;;;23.00;46.47
56514;BME280;62152;52.078;8.414;2022-08-11T09:58:45;100914.28;;;23.00;46.46
56514;BME280;62152;52.078;8.414;2022-08-11T10:00:32;100915.09;;;23.00;46.41
56514;BME280;62152;52.078;8.414;2022-08-11T10:02:27;100911.53;;;23.00;46.11
56514;BME280;62152;52.078;8.414;2022-08-11T10:04:17;100910.34;;;23.01;46.05
56514;BME280;62152;52.078;8.414;2022-08-11T10:06:08;100901.25;;;23.00;46.18
56514;BME280;62152;52.078;8.414;2022-08-11T10:08:11;100910.34;;;23.01;46.12
56514;BME280;62152;52.078;8.414;2022-08-11T10:10:02;100902.84;;;23.01;46.04
56514;BME280;62152;52.078;8.414;2022-08-11T10:11:51;100906.78;;;23.00;46.14
56514;BME280;62152;52.078;8.414;2022-08-11T10:13:42;100890.19;;;23.00;46.12
56514;BME280;62152;52.078;8.414;2022-08-11T10:15:45;100894.53;;;23.01;46.00
56514;BME280;62152;52.078;8.414;2022-08-11T10:17:34;100891.78;;;23.01;45.99
56514;BME280;62152;52.078;8.414;2022-08-11T10:19:42;100883.47;;;23.01;46.03
56514;BME280;62152;52.078;8.414;2022-08-11T10:21:37;100891.78;;;23.01;45.64
56514;BME280;62152;52.078;8.414;2022-08-11T10:23:27;100883.47;;;23.01;46.09
56514;BME280;62152;52.078;8.414;2022-08-11T10:25:28;100885.06;;;23.02;45.58
56514;BME280;62152;52.078;8.414;2022-08-11T10:27:29;100888.63;;;23.03;45.87
56514;BME280;62152;52.078;8.414;2022-08-11T10:29:18;100889.41;;;23.03;45.81
56514;BME280;62152;52.078;8.414;2022-08-11T10:31:19;100885.47;;;23.04;45.81
56514;BME280;62152;52.078;8.414;2022-08-11T10:33:19;100876.38;;;23.04;45.88
56514;BME280;62152;52.078;8.414;2022-08-11T10:35:19;100877.16;;;23.04;45.97
56514;BME280;62152;52.078;8.414;2022-08-11T10:37:07;100878.34;;;23.03;45.86
56514;BME280;62152;52.078;8.414;2022-08-11T10:38:56;100870.44;;;23.05;45.82
56514;BME280;62152;52.078;8.414;2022-08-11T10:40:45;100868.84;;;23.04;45.66
56514;BME280;62152;52.078;8.414;2022-08-11T10:42:58;100869.66;;;23.05;45.69
56514;BME280;62152;52.078;8.414;2022-08-11T10:44:52;100866.53;;;23.06;46.03
56514;BME280;62152;52.078;8.414;2022-08-11T10:46:39;100867.69;;;23.05;45.72
56514;BME280;62152;52.078;8.414;2022-08-11T10:48:37;100849.50;;;23.04;45.88
56514;BME280;62152;52.078;8.414;2022-08-11T10:50:24;100854.63;;;23.06;45.70
56514;BME280;62152;52.078;8.414;2022-08-11T10:52:23;100856.59;;;23.05;45.62
56514;BME280;62152;52.078;8.414;2022-08-11T10:54:22;100859.38;;;23.05;46.12
56514;BME280;62152;52.078;8.414;2022-08-11T10:56:21;100851.88;;;23.06;45.33
56514;BME280;62152;52.078;8.414;2022-08-11T10:58:21;100855.47;;;23.06;45.53
56514;BME280;62152;52.078;8.414;2022-08-11T11:00:22;100850.72;;;23.07;45.73
56514;BME280;62152;52.078;8.414;2022-08-11T11:02:10;100847.56;;;23.08;45.38
56514;BME280;62152;52.078;8.414;2022-08-11T11:04:01;100843.22;;;23.07;45.50
56514;BME280;62152;52.078;8.414;2022-08-11T11:05:54;100855.06;;;23.08;45.74
56514;BME280;62152;52.078;8.414;2022-08-11T11:07:54;100848.75;;;23.07;45.21
56514;BME280;62152;52.078;8.414;2022-08-11T11:10:06;100850.31;;;23.08;45.58
56514;BME280;62152;52.078;8.414;2022-08-11T11:11:55;100843.22;;;23.07;45.65
56514;BME280;62152;52.078;8.414;2022-08-11T11:13:56;100840.03;;;23.09;44.85
56514;BME280;62152;52.078;8.414;2022-08-11T11:15:57;100842.03;;;23.08;45.30
56514;BME280;62152;52.078;8.414;2022-08-11T11:17:58;100836.50;;;23.08;44.76